Time;durP1;ratioP1;P1;durP2;ratioP2;P2;SDS_P1;SDS_P2;PMS_P1;PMS_P2;Temp;Humidity;BMP_temperature;BMP_pressure;BME280_temperature;BME280_humidity;BME280_pressure;Samples;Min_cycle;Max_cycle;Signal;HPM_P1;HPM_P2
2022/04/06 00:01:39;;;;;;;22.15;10.95;;;8.60;99.90;;;;;;5013363;28;20328;-74
2022/04/06 00:04:05;;;;;;;20.15;10.90;;;8.60;99.90;;;;;;5013339;28;20077;-74
2022/04/06 00:06:31;;;;;;;26.23;13.38;;;8.60;99.90;;;;;;5012822;28;20042;-77
2022/04/06 00:08:57;;;;;;;25.50;12.90;;;8.70;99.90;;;;;;5013602;28;20133;-74
2022/04/06 00:11:23;;;;;;;23.13;12.93;;;8.70;99.90;;;;;;4996471;28;20379;-74
2022/04/06 00:13:49;;;;;;;22.70;12.48;;;8.70;99.90;;;;;;4996027;28;20077;-75
2022/04/06 00:16:15;;;;;;;26.20;15.07;;;8.70;99.90;;;;;;5012939;28;20540;-74
2022/04/06 00:18:41;;;;;;;27.13;13.70;;;8.70;99.90;;;;;;5012302;28;20386;-75
2022/04/06 00:21:07;;;;;;;25.90;14.10;;;8.70;99.90;;;;;;5013189;28;20038;-74
2022/04/06 00:23:33;;;;;;;23.67;14.13;;;8.70;99.90;;;;;;5012104;28;20057;-76
2022/04/06 00:25:59;;;;;;;27.40;13.82;;;8.70;99.90;;;;;;5013155;28;20374;-74
2022/04/06 00:28:24;;;;;;;25.80;13.45;;;8.70;99.90;;;;;;5013160;28;20394;-75
2022/04/06 00:30:50;;;;;;;27.92;13.57;;;8.70;99.90;;;;;;5013263;28;20053;-76
2022/04/06 00:33:16;;;;;;;24.30;12.77;;;8.60;99.90;;;;;;5013530;28;20491;-73
2022/04/06 00:35:42;;;;;;;23.75;12.88;;;8.60;99.90;;;;;;5012791;28;20065;-75
2022/04/06 00:38:08;;;;;;;22.95;13.13;;;8.60;99.90;;;;;;5013230;28;20112;-74
2022/04/06 00:40:35;;;;;;;21.70;12.63;;;8.60;99.90;;;;;;5012568;28;20061;-74
2022/04/06 00:43:10;;;;;;;27.88;13.82;;;8.70;99.90;;;;;;4995594;28;20376;-74
2022/04/06 00:45:38;;;;;;;24.27;14.63;;;8.60;99.90;;;;;;5013046;28;20050;-74
2022/04/06 00:48:05;;;;;;;22.15;12.02;;;8.60;99.90;;;;;;5014405;28;20088;-74
2022/04/06 00:50:31;;;;;;;25.65;12.73;;;8.60;99.90;;;;;;4998930;28;20053;-74
2022/04/06 00:52:58;;;;;;;25.55;12.60;;;8.60;99.90;;;;;;5015231;28;20050;-75
2022/04/06 00:55:31;;;;;;;23.42;12.75;;;8.60;99.90;;;;;;5016613;28;20064;-74
2022/04/06 00:57:57;;;;;;;29.58;14.77;;;8.60;99.90;;;;;;5016893;28;20129;-74
2022/04/06 01:00:24;;;;;;;23.35;12.70;;;8.60;99.90;;;;;;5016175;28;20469;-75
2022/04/06 01:02:50;;;;;;;23.88;12.82;;;8.60;99.90;;;;;;5016229;28;20052;-74
2022/04/06 01:05:17;;;;;;;20.25;12.00;;;8.60;99.90;;;;;;5015449;28;20108;-74
2022/04/06 01:07:47;;;;;;;28.17;12.88;;;8.60;99.90;;;;;;5016026;28;20056;-76
2022/04/06 01:10:12;;;;;;;20.85;13.32;;;8.60;99.90;;;;;;5016338;28;20133;-75
2022/04/06 01:12:39;;;;;;;20.75;11.38;;;8.60;99.90;;;;;;5015330;28;20132;-74
2022/04/06 01:15:06;;;;;;;17.48;10.77;;;8.60;99.90;;;;;;5016015;28;20108;-74
2022/04/06 01:17:33;;;;;;;20.13;12.00;;;8.60;99.90;;;;;;5015870;28;20125;-74
2022/04/06 01:20:00;;;;;;;22.05;10.68;;;8.60;99.90;;;;;;5016491;28;20054;-74
2022/04/06 01:22:26;;;;;;;24.60;11.15;;;8.60;99.90;;;;;;5015903;28;20050;-77
2022/04/06 01:24:52;;;;;;;24.52;10.82;;;8.60;99.90;;;;;;5015732;28;20129;-74
2022/04/06 01:27:18;;;;;;;23.38;11.75;;;8.60;99.90;;;;;;5015669;28;20069;-76
2022/04/06 01:29:45;;;;;;;19.75;9.50;;;8.60;99.90;;;;;;5015921;28;20049;-75
2022/04/06 01:32:18;;;;;;;20.90;10.15;;;8.60;99.90;;;;;;5015951;28;20056;-75
2022/04/06 01:34:44;;;;;;;25.38;11.98;;;8.60;99.90;;;;;;5015623;28;20050;-75
2022/04/06 01:37:12;;;;;;;20.35;9.80;;;8.60;99.90;;;;;;5014517;28;20613;-73
2022/04/06 01:39:39;;;;;;;19.50;8.95;;;8.90;99.90;;;;;;5015564;28;20052;-76
2022/04/06 01:42:07;;;;;;;20.33;10.20;;;8.60;99.90;;;;;;5016549;28;20046;-75
2022/04/06 01:44:33;;;;;;;23.92;10.68;;;8.60;99.90;;;;;;5014221;28;20050;-75
2022/04/06 01:47:00;;;;;;;20.90;9.57;;;8.70;99.90;;;;;;5015724;28;20081;-76
2022/04/06 01:52:13;;;;;;;17.33;8.55;;;8.60;99.90;;;;;;5014287;28;20054;-75
2022/04/06 01:54:48;;;;;;;16.30;7.63;;;8.60;99.90;;;;;;5015807;28;20054;-77
2022/04/06 01:57:15;;;;;;;18.48;8.63;;;8.60;99.90;;;;;;5015216;28;20046;-75
2022/04/06 01:59:42;;;;;;;20.25;8.73;;;8.60;99.90;;;;;;5014519;28;20045;-75
2022/04/06 02:02:08;;;;;;;18.85;8.20;;;8.60;99.90;;;;;;5015389;28;20387;-78
2022/04/06 02:04:34;;;;;;;14.95;8.02;;;8.60;99.90;;;;;;5015303;28;20085;-76
2022/04/06 02:07:00;;;;;;;18.83;8.93;;;8.60;99.90;;;;;;5014915;28;20093;-74
2022/04/06 02:09:26;;;;;;;16.15;8.70;;;8.70;99.90;;;;;;5014904;28;20108;-74
2022/04/06 02:11:52;;;;;;;17.13;7.70;;;8.60;99.90;;;;;;5014991;28;20053;-74
2022/04/06 02:14:18;;;;;;;17.42;7.97;;;8.70;99.90;;;;;;5013827;28;20080;-75
2022/04/06 02:16:45;;;;;;;16.67;8.60;;;8.70;99.90;;;;;;5015305;28;20116;-74
2022/04/06 02:19:11;;;;;;;14.55;7.75;;;8.70;99.90;;;;;;5014770;28;20426;-77
2022/04/06 02:21:36;;;;;;;16.13;6.20;;;8.70;99.90;;;;;;5014688;28;20046;-73
2022/04/06 02:24:02;;;;;;;21.55;8.40;;;8.70;99.90;;;;;;5013683;28;20042;-76
2022/04/06 02:26:28;;;;;;;17.60;8.40;;;8.70;99.90;;;;;;5013678;28;20046;-77
2022/04/06 02:28:55;;;;;;;16.80;6.63;;;8.70;99.90;;;;;;5014695;28;20129;-74
2022/04/06 02:31:21;;;;;;;16.52;7.28;;;8.70;99.90;;;;;;5013232;28;20046;-75
2022/04/06 02:33:47;;;;;;;14.10;6.78;;;8.70;99.90;;;;;;5014496;28;20095;-74
2022/04/06 02:36:12;;;;;;;15.25;6.43;;;8.70;99.90;;;;;;5013438;28;20053;-81
2022/04/06 02:38:38;;;;;;;15.48;6.57;;;8.70;99.90;;;;;;5014392;28;20123;-74
2022/04/06 02:41:11;;;;;;;14.75;6.18;;;8.70;99.90;;;;;;5014568;28;20065;-75
2022/04/06 02:43:37;;;;;;;14.45;6.40;;;8.80;99.90;;;;;;5014891;28;20130;-75
2022/04/06 02:46:03;;;;;;;11.63;6.05;;;8.80;99.90;;;;;;5014326;28;20383;-75
2022/04/06 02:48:29;;;;;;;15.10;6.22;;;8.70;99.90;;;;;;5014304;28;20136;-74
2022/04/06 02:50:55;;;;;;;17.25;6.18;;;8.70;99.90;;;;;;5014115;28;20129;-75
2022/04/06 02:53:22;;;;;;;14.48;5.80;;;8.70;99.90;;;;;;5014236;28;20131;-74
2022/04/06 02:55:48;;;;;;;13.73;5.72;;;8.70;99.90;;;;;;5013240;28;20394;-75
2022/04/06 02:58:14;;;;;;;12.52;5.85;;;8.70;99.90;;;;;;5012973;28;20041;-74
2022/04/06 03:00:40;;;;;;;12.10;5.90;;;8.70;99.90;;;;;;5013114;28;20064;-74
2022/04/06 03:03:06;;;;;;;14.85;6.57;;;8.70;99.90;;;;;;5013305;28;20053;-73
2022/04/06 03:05:32;;;;;;;12.52;6.00;;;8.70;99.90;;;;;;5014074;28;20494;-74
2022/04/06 03:07:57;;;;;;;13.95;5.78;;;8.70;99.90;;;;;;5014690;28;20077;-75
2022/04/06 03:10:23;;;;;;;15.68;6.15;;;8.70;99.90;;;;;;5012709;28;20498;-75
2022/04/06 03:12:49;;;;;;;14.20;6.18;;;8.80;99.90;;;;;;5013855;28;20052;-74
2022/04/06 03:15:17;;;;;;;12.25;5.47;;;8.70;99.90;;;;;;5012881;28;20107;-75
2022/04/06 03:17:43;;;;;;;18.52;6.85;;;8.70;99.90;;;;;;5012827;28;20368;-73
2022/04/06 03:20:14;;;;;;;14.85;6.57;;;8.70;99.90;;;;;;5013701;28;20084;-76
2022/04/06 03:22:41;;;;;;;15.38;6.63;;;8.70;99.90;;;;;;5012900;28;20474;-75
2022/04/06 03:25:07;;;;;;;12.10;6.80;;;8.70;99.90;;;;;;5012767;28;20052;-74
2022/04/06 03:27:34;;;;;;;17.27;6.78;;;8.60;99.90;;;;;;5013730;28;20041;-77
2022/04/06 03:30:01;;;;;;;12.93;7.38;;;8.70;99.90;;;;;;5013628;28;20057;-73
2022/04/06 03:32:26;;;;;;;18.95;7.78;;;8.70;99.90;;;;;;5012572;28;20058;-74
2022/04/06 03:34:52;;;;;;;21.65;8.45;;;8.80;99.90;;;;;;5014402;28;20046;-76
2022/04/06 03:37:18;;;;;;;16.42;6.55;;;8.60;99.90;;;;;;5013421;28;20053;-77
2022/04/06 03:39:44;;;;;;;17.52;7.32;;;8.60;99.90;;;;;;5012367;28;20042;-74
2022/04/06 03:42:09;;;;;;;18.85;8.25;;;8.60;99.90;;;;;;5013066;28;20056;-75
2022/04/06 03:44:35;;;;;;;21.38;9.57;;;8.70;99.90;;;;;;5013317;28;20054;-74
2022/04/06 03:47:01;;;;;;;19.45;7.68;;;8.70;99.90;;;;;;5013362;28;20053;-77
2022/04/06 03:49:26;;;;;;;16.38;8.65;;;8.70;99.90;;;;;;5014217;28;20046;-75
2022/04/06 03:51:52;;;;;;;21.27;10.05;;;8.70;99.90;;;;;;5012798;28;20485;-74
2022/04/06 03:54:18;;;;;;;20.45;9.77;;;8.70;99.90;;;;;;5013439;28;20053;-74
2022/04/06 03:56:44;;;;;;;16.67;9.63;;;8.70;99.90;;;;;;5013367;28;20486;-74
2022/04/06 03:59:09;;;;;;;19.05;9.20;;;8.70;99.90;;;;;;5013398;28;20053;-74
2022/04/06 04:01:35;;;;;;;22.63;10.02;;;8.80;99.90;;;;;;5013092;28;20054;-75
2022/04/06 04:04:02;;;;;;;17.40;8.80;;;8.70;99.90;;;;;;5013597;28;20077;-75
2022/04/06 04:06:27;;;;;;;20.98;9.77;;;8.70;99.90;;;;;;5013530;28;20050;-75
2022/04/06 04:08:53;;;;;;;17.90;8.88;;;8.80;99.90;;;;;;5013364;28;20084;-75
2022/04/06 04:11:19;;;;;;;18.65;8.93;;;8.80;99.90;;;;;;5013443;28;20045;-75
2022/04/06 04:13:45;;;;;;;21.33;10.02;;;8.80;99.90;;;;;;5013252;28;20042;-74
2022/04/06 04:16:11;;;;;;;21.30;10.68;;;8.80;99.90;;;;;;5012527;28;20122;-75
2022/04/06 04:18:37;;;;;;;18.27;9.30;;;8.80;99.90;;;;;;5013688;28;20558;-74
2022/04/06 04:23:46;;;;;;;19.17;9.32;;;8.90;99.90;;;;;;5017358;28;20145;-73
2022/04/06 04:26:12;;;;;;;17.20;9.13;;;8.80;99.90;;;;;;5016913;28;20081;-73
2022/04/06 04:28:38;;;;;;;16.20;8.85;;;8.90;99.90;;;;;;5016856;28;20042;-74
2022/04/06 04:31:03;;;;;;;13.82;7.65;;;8.90;99.90;;;;;;5015520;28;20072;-73
2022/04/06 04:33:29;;;;;;;19.98;8.82;;;8.90;99.90;;;;;;5016544;28;20123;-74
2022/04/06 04:35:55;;;;;;;14.93;8.23;;;8.80;99.90;;;;;;5016698;28;20088;-75
2022/04/06 04:38:20;;;;;;;18.50;9.65;;;8.80;99.90;;;;;;5017045;28;20038;-73
2022/04/06 04:40:47;;;;;;;16.50;7.72;;;8.90;99.90;;;;;;5015174;28;20410;-74
2022/04/06 04:43:12;;;;;;;21.27;10.18;;;8.90;99.90;;;;;;5016376;28;20048;-74
2022/04/06 04:45:38;;;;;;;15.65;6.95;;;8.90;99.90;;;;;;5015554;28;20479;-74
2022/04/06 04:48:04;;;;;;;14.13;6.72;;;8.90;99.90;;;;;;5016475;28;20048;-74
2022/04/06 04:50:30;;;;;;;13.77;7.10;;;8.80;99.90;;;;;;5016405;28;20050;-74
2022/04/06 04:52:56;;;;;;;19.10;8.02;;;8.80;99.90;;;;;;5016150;28;20140;-74
2022/04/06 04:55:21;;;;;;;17.75;9.88;;;8.80;99.90;;;;;;5015438;28;20493;-73
2022/04/06 04:57:47;;;;;;;19.17;7.43;;;8.80;99.90;;;;;;5016384;28;20053;-75
2022/04/06 05:00:13;;;;;;;16.75;7.20;;;8.80;99.90;;;;;;5015294;28;20046;-74
2022/04/06 05:02:39;;;;;;;18.13;6.22;;;8.80;99.90;;;;;;5015260;28;20522;-74
2022/04/06 05:05:11;;;;;;;15.48;6.85;;;8.80;99.90;;;;;;5016161;28;20050;-75
2022/04/06 05:07:37;;;;;;;12.57;7.13;;;8.70;99.90;;;;;;5016082;28;20167;-73
2022/04/06 05:10:12;;;;;;;15.68;7.10;;;8.80;99.90;;;;;;5016284;28;20082;-74
2022/04/06 05:12:38;;;;;;;16.20;6.53;;;8.80;99.90;;;;;;5016095;28;20134;-73
2022/04/06 05:15:04;;;;;;;13.82;6.35;;;8.80;99.90;;;;;;5014922;28;20138;-74
2022/04/06 05:17:30;;;;;;;15.48;7.55;;;8.80;99.90;;;;;;5015937;28;20136;-75
2022/04/06 05:19:57;;;;;;;17.40;7.60;;;8.70;99.90;;;;;;5014937;28;20050;-74
2022/04/06 05:22:23;;;;;;;16.27;7.68;;;8.70;99.90;;;;;;5014525;28;20380;-74
2022/04/06 05:24:49;;;;;;;14.23;6.22;;;8.70;99.90;;;;;;5015841;28;20104;-74
2022/04/06 05:27:14;;;;;;;19.67;6.75;;;8.70;99.90;;;;;;5014925;28;20050;-73
2022/04/06 05:29:41;;;;;;;18.00;6.60;;;8.70;99.90;;;;;;5015906;28;20049;-75
2022/04/06 05:32:08;;;;;;;13.02;7.38;;;8.70;99.90;;;;;;5016227;28;20054;-73
2022/04/06 05:34:35;;;;;;;15.68;7.28;;;8.70;99.90;;;;;;5014453;28;20374;-74
2022/04/06 05:37:02;;;;;;;15.48;6.50;;;8.60;99.90;;;;;;5015495;28;20054;-75
2022/04/06 05:39:27;;;;;;;16.77;7.05;;;8.60;99.90;;;;;;5015559;28;20049;-74
2022/04/06 05:41:53;;;;;;;15.48;7.22;;;8.70;99.90;;;;;;5015848;28;20188;-76
2022/04/06 05:44:19;;;;;;;14.10;6.68;;;8.70;99.90;;;;;;5015437;28;20129;-74
2022/04/06 05:46:44;;;;;;;12.27;5.88;;;8.80;99.90;;;;;;5015326;28;20053;-74
2022/04/06 05:49:10;;;;;;;14.10;6.25;;;8.70;99.90;;;;;;5016080;28;20124;-77
2022/04/06 05:51:36;;;;;;;12.90;6.03;;;8.60;99.90;;;;;;5015298;28;20050;-73
2022/04/06 05:54:02;;;;;;;12.40;5.05;;;8.70;99.90;;;;;;5014605;28;20137;-74
2022/04/06 05:56:31;;;;;;;10.18;5.00;;;8.70;99.90;;;;;;5014215;28;20050;-75
2022/04/06 05:58:57;;;;;;;10.88;5.35;;;8.70;99.90;;;;;;5014459;28;20050;-75
2022/04/06 06:01:23;;;;;;;11.85;5.25;;;8.70;99.90;;;;;;4997747;28;20056;-74
2022/04/06 06:03:49;;;;;;;11.65;5.10;;;8.70;99.90;;;;;;5013823;28;20092;-73
2022/04/06 06:06:15;;;;;;;13.98;5.22;;;8.80;99.90;;;;;;5015198;28;20052;-75
2022/04/06 06:08:41;;;;;;;11.45;4.88;;;8.70;99.90;;;;;;5015484;28;20128;-75
2022/04/06 06:11:08;;;;;;;7.90;3.88;;;8.70;99.90;;;;;;4997320;28;20125;-74
2022/04/06 06:13:34;;;;;;;11.80;4.03;;;8.90;99.90;;;;;;5014865;28;20092;-75
2022/04/06 06:16:00;;;;;;;10.40;4.43;;;8.80;99.90;;;;;;5014843;28;20056;-75
2022/04/06 06:18:27;;;;;;;7.72;4.30;;;8.80;99.90;;;;;;4997472;28;20498;-76
2022/04/06 06:20:53;;;;;;;8.60;3.42;;;8.80;99.90;;;;;;5014822;28;20092;-76
2022/04/06 06:23:19;;;;;;;11.38;4.68;;;8.80;99.90;;;;;;5015209;28;20085;-75
2022/04/06 06:25:45;;;;;;;8.82;4.05;;;8.80;99.90;;;;;;5014626;28;20108;-76
2022/04/06 06:28:11;;;;;;;9.73;3.70;;;8.70;99.90;;;;;;5013665;28;20103;-76
2022/04/06 06:30:36;;;;;;;9.75;3.65;;;8.70;99.90;;;;;;5013355;28;20091;-75
2022/04/06 06:33:02;;;;;;;6.28;3.42;;;8.70;99.90;;;;;;5014404;28;20078;-76
2022/04/06 06:35:28;;;;;;;5.30;3.42;;;8.70;99.90;;;;;;5014339;28;20057;-75
2022/04/06 06:37:56;;;;;;;8.10;3.65;;;8.80;99.90;;;;;;5013401;28;20188;-76
2022/04/06 06:40:25;;;;;;;10.27;3.28;;;8.80;99.90;;;;;;5013151;28;20070;-77
2022/04/06 06:42:50;;;;;;;8.23;3.20;;;8.80;99.90;;;;;;5014374;28;20057;-75
2022/04/06 06:45:17;;;;;;;6.10;2.55;;;8.80;99.90;;;;;;5013306;28;20045;-75
2022/04/06 06:47:43;;;;;;;9.23;3.17;;;8.80;99.90;;;;;;4997854;28;20116;-76
2022/04/06 06:50:11;;;;;;;7.20;3.55;;;8.80;99.90;;;;;;5013164;28;20125;-75
2022/04/06 06:52:36;;;;;;;5.10;2.40;;;8.80;99.90;;;;;;5014226;28;20085;-76
2022/04/06 06:55:05;;;;;;;5.45;2.33;;;8.70;99.90;;;;;;5014238;28;20081;-75
2022/04/06 06:57:31;;;;;;;5.88;2.72;;;8.70;99.90;;;;;;5013163;28;20049;-77
2022/04/06 06:59:57;;;;;;;6.40;2.40;;;8.70;99.90;;;;;;5013125;28;20451;-75
2022/04/06 07:02:23;;;;;;;7.20;2.53;;;9.00;99.90;;;;;;4996573;28;20092;-74
2022/04/06 07:04:49;;;;;;;6.13;2.88;;;8.80;99.90;;;;;;5013091;28;20458;-76
2022/04/06 07:07:15;;;;;;;5.70;2.25;;;8.70;99.90;;;;;;5013215;28;20096;-76
2022/04/06 07:09:41;;;;;;;6.28;2.70;;;8.60;99.90;;;;;;5013814;28;20049;-75
2022/04/06 07:12:06;;;;;;;7.05;2.40;;;8.70;99.90;;;;;;5013893;28;20134;-76
2022/04/06 07:14:33;;;;;;;6.85;2.88;;;8.70;99.90;;;;;;5013944;28;20046;-76
2022/04/06 07:16:59;;;;;;;9.55;2.42;;;8.70;99.90;;;;;;5012844;28;20455;-75
2022/04/06 07:19:25;;;;;;;6.13;2.47;;;8.70;99.90;;;;;;4979737;28;20045;-74
2022/04/06 07:21:51;;;;;;;8.60;2.65;;;8.70;99.90;;;;;;5012444;28;20053;-78
2022/04/06 07:24:17;;;;;;;7.80;2.40;;;8.70;99.90;;;;;;5013476;28;20054;-79
2022/04/06 07:26:43;;;;;;;4.15;2.03;;;9.00;99.90;;;;;;5013602;28;20133;-77
2022/04/06 07:29:11;;;;;;;5.68;2.47;;;8.70;99.90;;;;;;5013614;28;20187;-81
2022/04/06 07:31:41;;;;;;;5.00;2.17;;;8.70;99.90;;;;;;5012576;28;20057;-76
2022/04/06 07:34:07;;;;;;;8.00;2.45;;;8.70;99.90;;;;;;5013496;28;20049;-73
2022/04/06 07:36:33;;;;;;;7.47;2.90;;;8.70;99.90;;;;;;5013761;28;20495;-77
2022/04/06 07:39:03;;;;;;;6.47;3.60;;;8.80;99.90;;;;;;5012173;28;20050;-76
2022/04/06 07:41:30;;;;;;;6.60;3.78;;;8.70;99.90;;;;;;5013379;28;20093;-75
2022/04/06 07:43:56;;;;;;;10.57;3.30;;;8.70;99.90;;;;;;5013384;28;20062;-73
2022/04/06 07:46:22;;;;;;;5.22;2.88;;;8.70;99.90;;;;;;5013967;28;20132;-76
2022/04/06 07:48:48;;;;;;;8.85;3.97;;;8.60;99.90;;;;;;5012462;28;20160;-76
2022/04/06 07:51:14;;;;;;;7.68;3.35;;;8.70;99.90;;;;;;5013322;28;20045;-73
2022/04/06 07:53:40;;;;;;;6.95;2.75;;;8.70;99.90;;;;;;5013224;28;20060;-75
2022/04/06 07:56:08;;;;;;;7.00;4.05;;;8.70;99.90;;;;;;5012424;28;20049;-75
2022/04/06 07:58:35;;;;;;;7.32;4.03;;;8.70;99.90;;;;;;5015916;28;20494;-75
2022/04/06 08:01:02;;;;;;;8.98;3.70;;;8.70;99.90;;;;;;5017290;28;20049;-74
2022/04/06 08:03:29;;;;;;;7.57;3.47;;;8.70;99.90;;;;;;5016219;28;20438;-74
2022/04/06 08:05:56;;;;;;;8.70;3.72;;;8.70;99.90;;;;;;5017292;28;20143;-76
2022/04/06 08:08:21;;;;;;;10.23;4.43;;;8.70;99.90;;;;;;5017129;28;20097;-74
2022/04/06 08:10:47;;;;;;;11.05;4.70;;;8.70;99.90;;;;;;5016762;28;20077;-73
2022/04/06 08:13:13;;;;;;;6.53;4.38;;;8.70;99.90;;;;;;5017283;28;20050;-72
2022/04/06 08:15:38;;;;;;;8.02;4.32;;;9.00;99.90;;;;;;5017069;28;20052;-73
2022/04/06 08:18:06;;;;;;;8.38;4.80;;;8.80;99.90;;;;;;5017903;28;20049;-74
2022/04/06 08:20:31;;;;;;;8.68;4.55;;;8.90;99.90;;;;;;5017099;28;20057;-73
2022/04/06 08:22:57;;;;;;;12.52;5.72;;;8.90;99.90;;;;;;5017245;28;20042;-76
2022/04/06 08:25:23;;;;;;;10.77;5.50;;;8.90;99.90;;;;;;5017009;28;20056;-74
2022/04/06 08:27:49;;;;;;;11.20;5.70;;;8.90;99.90;;;;;;5017611;28;20042;-74
2022/04/06 08:30:16;;;;;;;8.73;5.10;;;8.80;99.90;;;;;;5016635;28;20038;-73
2022/04/06 08:32:42;;;;;;;10.23;5.95;;;8.90;99.90;;;;;;5017571;28;20400;-75
2022/04/06 08:35:09;;;;;;;10.88;7.13;;;8.90;99.90;;;;;;5015797;28;20489;-75
2022/04/06 08:37:36;;;;;;;10.05;5.72;;;9.00;99.90;;;;;;5015893;28;20430;-73
2022/04/06 08:40:03;;;;;;;9.52;5.53;;;8.90;99.90;;;;;;5016312;28;20045;-74
2022/04/06 08:42:32;;;;;;;12.55;6.22;;;9.00;99.90;;;;;;5016499;28;20129;-74
2022/04/06 08:45:01;;;;;;;12.43;6.43;;;9.00;99.90;;;;;;5016362;28;20058;-73
2022/04/06 08:47:31;;;;;;;12.20;7.00;;;9.00;99.90;;;;;;5016549;28;20050;-73
2022/04/06 08:49:57;;;;;;;12.60;7.45;;;9.10;99.90;;;;;;5017066;28;20038;-75
2022/04/06 08:52:23;;;;;;;12.40;6.88;;;9.10;99.90;;;;;;5016609;28;20457;-74
2022/04/06 08:54:49;;;;;;;11.98;6.72;;;9.30;99.90;;;;;;5017192;28;20125;-74
2022/04/06 08:57:17;;;;;;;12.55;7.57;;;9.30;99.90;;;;;;5016397;28;20471;-75
2022/04/06 08:59:42;;;;;;;13.02;6.07;;;9.20;99.90;;;;;;5016394;28;20073;-75
2022/04/06 09:02:08;;;;;;;12.45;6.55;;;9.20;99.90;;;;;;5016007;28;20041;-73
2022/04/06 09:04:35;;;;;;;11.57;6.78;;;9.10;99.90;;;;;;5015264;28;20052;-73
2022/04/06 09:07:08;;;;;;;13.13;6.28;;;9.10;99.90;;;;;;5014782;28;20062;-73
2022/04/06 09:09:35;;;;;;;14.65;7.00;;;9.10;99.90;;;;;;5014919;28;20053;-76
2022/04/06 09:12:07;;;;;;;11.75;6.35;;;9.10;99.90;;;;;;5015001;28;20052;-74
2022/04/06 09:14:33;;;;;;;11.57;6.00;;;9.10;99.90;;;;;;5015919;28;20050;-73
2022/04/06 09:17:04;;;;;;;9.23;5.63;;;9.20;99.90;;;;;;5016018;28;20092;-73
2022/04/06 09:19:30;;;;;;;10.02;5.93;;;9.20;99.90;;;;;;5015976;28;20046;-74
2022/04/06 09:21:56;;;;;;;7.05;4.68;;;9.20;99.90;;;;;;5015913;28;20172;-73
2022/04/06 09:24:24;;;;;;;9.38;5.88;;;9.10;99.90;;;;;;5014882;28;20114;-74
2022/04/06 09:26:57;;;;;;;10.52;5.82;;;9.10;99.90;;;;;;5015637;28;20050;-74
2022/04/06 09:29:23;;;;;;;10.55;5.45;;;9.00;99.90;;;;;;5014996;28;20050;-77
2022/04/06 09:31:50;;;;;;;13.82;6.22;;;8.90;99.90;;;;;;5016025;28;20056;-73
2022/04/06 09:34:19;;;;;;;12.38;5.40;;;8.80;99.90;;;;;;5015791;28;20061;-74
2022/04/06 09:36:45;;;;;;;10.07;4.75;;;8.90;99.90;;;;;;5015550;28;20085;-75
2022/04/06 09:39:10;;;;;;;7.43;4.80;;;8.90;99.90;;;;;;5015569;28;20179;-76
2022/04/06 09:41:57;;;;;;;6.95;4.97;;;9.00;99.90;;;;;;5016590;28;20336;-74
2022/04/06 09:50:17;;;;;;;9.23;4.45;;;9.30;99.90;;;;;;5016104;28;20046;-73
2022/04/06 09:52:44;;;;;;;5.20;3.65;;;9.40;99.90;;;;;;5016089;28;20387;-75
2022/04/06 09:55:12;;;;;;;6.75;3.53;;;9.40;99.90;;;;;;5015305;28;20050;-72
2022/04/06 09:57:56;;;;;;;6.35;3.53;;;9.40;99.90;;;;;;5014525;28;20419;-73
2022/04/06 10:00:28;;;;;;;6.38;3.40;;;9.40;99.90;;;;;;5015193;28;20050;-75
2022/04/06 10:03:05;;;;;;;6.85;3.60;;;9.40;99.90;;;;;;5014215;28;20125;-73
2022/04/06 10:05:37;;;;;;;7.20;3.53;;;9.40;99.90;;;;;;5015443;28;20181;-73
2022/04/06 10:08:07;;;;;;;6.07;3.78;;;9.40;99.90;;;;;;5015039;28;20513;-73
2022/04/06 10:10:38;;;;;;;7.10;3.58;;;9.40;99.90;;;;;;5015816;28;20405;-73
2022/04/06 10:13:10;;;;;;;7.03;3.95;;;9.30;99.90;;;;;;5015020;28;20050;-74
2022/04/06 10:15:37;;;;;;;7.22;3.85;;;9.40;99.90;;;;;;5015010;28;20045;-73
2022/04/06 10:18:04;;;;;;;6.60;3.83;;;9.40;99.90;;;;;;5014888;28;20111;-72
2022/04/06 10:20:36;;;;;;;7.18;4.18;;;9.40;99.90;;;;;;5014434;28;20054;-73
2022/04/06 10:23:20;;;;;;;8.13;4.68;;;9.40;99.90;;;;;;5015527;28;20392;-72
2022/04/06 10:25:58;;;;;;;6.97;4.18;;;9.40;99.90;;;;;;5013275;28;20075;-73
2022/04/06 10:28:24;;;;;;;9.65;4.50;;;9.50;99.90;;;;;;5014694;28;20056;-74
2022/04/06 10:31:11;;;;;;;8.18;4.32;;;9.50;99.90;;;;;;5013360;28;20054;-72
2022/04/06 10:33:37;;;;;;;7.38;4.93;;;9.60;99.90;;;;;;5013595;28;20050;-74
2022/04/06 10:36:23;;;;;;;7.55;4.63;;;9.60;99.90;;;;;;5014634;28;20452;-76
2022/04/06 10:39:07;;;;;;;8.13;4.47;;;9.60;99.90;;;;;;5015069;28;20402;-73
2022/04/06 10:41:42;;;;;;;10.77;5.13;;;9.60;99.90;;;;;;5012846;28;20062;-75
2022/04/06 10:44:28;;;;;;;10.00;5.70;;;9.60;99.90;;;;;;5014930;28;20046;-73
2022/04/06 10:47:08;;;;;;;5.20;4.10;;;9.70;99.90;;;;;;5013169;28;20137;-73
2022/04/06 10:49:34;;;;;;;9.13;4.65;;;9.70;99.90;;;;;;5013576;28;20300;-75
2022/04/06 10:52:17;;;;;;;6.85;4.75;;;9.70;99.90;;;;;;5014288;28;20168;-73
2022/04/06 10:54:43;;;;;;;10.95;4.82;;;9.70;99.90;;;;;;5014310;28;20101;-72
2022/04/06 10:57:09;;;;;;;10.02;5.45;;;9.70;99.90;;;;;;5014253;28;20050;-74
2022/04/06 10:59:35;;;;;;;6.30;5.07;;;9.70;99.90;;;;;;5014170;28;20048;-74
2022/04/06 11:02:18;;;;;;;9.45;5.05;;;9.70;99.90;;;;;;5014198;28;20056;-73
2022/04/06 11:04:44;;;;;;;9.85;5.78;;;9.70;99.90;;;;;;5012906;28;20046;-76
2022/04/06 11:07:10;;;;;;;8.80;5.10;;;9.70;99.90;;;;;;5013900;28;20125;-73
2022/04/06 11:12:29;;;;;;;9.82;5.47;;;9.60;99.90;;;;;;5014140;28;20065;-76
2022/04/06 11:14:58;;;;;;;10.68;5.35;;;9.60;99.90;;;;;;5013071;28;20053;-72
2022/04/06 11:17:34;;;;;;;9.93;5.65;;;9.50;99.90;;;;;;5014538;28;20050;-72
2022/04/06 11:20:02;;;;;;;8.70;4.85;;;9.50;99.90;;;;;;5013978;28;20046;-73
2022/04/06 11:22:28;;;;;;;13.15;6.85;;;9.50;99.90;;;;;;5013919;28;20054;-71
2022/04/06 11:24:56;;;;;;;10.68;5.63;;;9.40;99.90;;;;;;5012599;28;20387;-73
2022/04/06 11:27:35;;;;;;;8.98;4.90;;;9.40;99.90;;;;;;5013778;28;20104;-73
2022/04/06 11:30:03;;;;;;;11.10;6.20;;;9.40;99.90;;;;;;5012960;28;20398;-73
2022/04/06 11:32:29;;;;;;;11.02;6.32;;;9.30;99.90;;;;;;5012930;28;20137;-75
2022/04/06 11:35:02;;;;;;;11.82;6.35;;;9.30;99.90;;;;;;5012835;28;20050;-76
2022/04/06 11:37:28;;;;;;;12.65;7.32;;;9.30;99.90;;;;;;5011914;28;20478;-74
2022/04/06 11:40:00;;;;;;;9.10;5.43;;;9.30;99.90;;;;;;5013274;28;20046;-74
2022/04/06 11:42:27;;;;;;;12.13;6.25;;;9.20;99.90;;;;;;5014085;28;20053;-73
2022/04/06 11:44:56;;;;;;;10.57;6.32;;;9.20;99.90;;;;;;5013379;28;20050;-75
2022/04/06 11:47:34;;;;;;;9.20;5.90;;;9.20;99.90;;;;;;5013145;28;20054;-73
2022/04/06 11:50:10;;;;;;;11.30;6.15;;;9.20;99.90;;;;;;5013321;28;20129;-76
2022/04/06 11:52:40;;;;;;;10.73;6.32;;;9.20;99.90;;;;;;5013115;28;20393;-76
2022/04/06 11:55:07;;;;;;;12.50;7.10;;;9.20;99.90;;;;;;5013929;28;20453;-76
2022/04/06 11:57:45;;;;;;;12.43;6.43;;;9.30;99.90;;;;;;5012396;28;20441;-75
2022/04/06 12:00:13;;;;;;;11.15;6.40;;;9.40;99.90;;;;;;5012363;28;20054;-76
2022/04/06 12:02:52;;;;;;;9.27;5.57;;;9.60;99.90;;;;;;5012997;28;20121;-79
2022/04/06 12:05:19;;;;;;;9.40;5.70;;;9.60;99.90;;;;;;5012689;28;20363;-77
2022/04/06 12:07:46;;;;;;;8.73;5.30;;;9.60;99.90;;;;;;5013212;28;20056;-75
2022/04/06 12:10:13;;;;;;;11.38;5.85;;;9.60;99.90;;;;;;5012948;28;20377;-74
2022/04/06 12:12:40;;;;;;;10.73;4.95;;;9.70;99.90;;;;;;5013267;28;20050;-74
2022/04/06 12:15:06;;;;;;;9.55;5.85;;;9.70;99.90;;;;;;5012087;28;20049;-80
2022/04/06 12:17:37;;;;;;;10.38;5.65;;;9.70;99.90;;;;;;4995707;28;20129;-71
2022/04/06 12:20:23;;;;;;;10.18;5.60;;;9.80;99.90;;;;;;5013851;28;20046;-77
2022/04/06 12:23:08;;;;;;;6.97;5.35;;;9.80;99.90;;;;;;5013976;28;20115;-77
2022/04/06 12:25:35;;;;;;;9.90;6.20;;;9.80;99.90;;;;;;5012249;28;20521;-76
2022/04/06 12:28:21;;;;;;;10.70;5.93;;;9.90;99.90;;;;;;5013170;28;20234;-74
2022/04/06 12:30:57;;;;;;;;;;;10.10;99.90;;;;;;5013826;28;20053;-75
2022/04/06 12:33:41;;;;;;;11.35;6.30;;;10.20;99.90;;;;;;5012250;28;20323;-76
2022/04/06 12:36:11;;;;;;;8.63;5.18;;;10.20;99.90;;;;;;5011915;28;20042;-72
2022/04/06 12:38:37;;;;;;;8.88;5.93;;;10.10;99.90;;;;;;5012825;28;20042;-74
2022/04/06 12:41:08;;;;;;;10.75;6.65;;;10.20;99.90;;;;;;5013424;28;20089;-75
2022/04/06 12:43:45;;;;;;;8.60;6.18;;;10.20;99.90;;;;;;5014841;28;20057;-77
2022/04/06 12:46:11;;;;;;;8.75;5.70;;;10.20;99.90;;;;;;5015933;28;20057;-77
2022/04/06 12:48:37;;;;;;;7.90;5.57;;;10.10;99.90;;;;;;5015625;28;20441;-76
2022/04/06 12:51:21;;;;;;;9.23;6.55;;;10.00;99.90;;;;;;5015275;28;20042;-74
2022/04/06 12:53:51;;;;;;;8.98;5.82;;;10.00;99.90;;;;;;5015301;28;20049;-77
2022/04/06 12:56:24;;;;;;;9.73;6.03;;;10.00;99.90;;;;;;5016278;28;20132;-76
2022/04/06 12:59:09;;;;;;;8.40;6.20;;;10.00;99.90;;;;;;5000199;28;20061;-77
2022/04/06 13:01:48;;;;;;;7.05;4.97;;;10.00;99.90;;;;;;5015410;28;20060;-79
2022/04/06 13:04:14;;;;;;;9.88;5.63;;;10.00;99.90;;;;;;5015866;28;20502;-76
2022/04/06 13:06:40;;;;;;;8.15;6.45;;;10.00;99.90;;;;;;5014819;28;20136;-82